sensor_id;sensor_type;location;lat;lon;timestamp;P1;durP1;ratioP1;P2;durP2;ratioP2
51810;SDS011;52468;40.116;18.296;2023-02-28T00:01:37;51.67;;;16.53;;
51810;SDS011;52468;40.116;18.296;2023-02-28T00:04:05;51.37;;;14.40;;
51810;SDS011;52468;40.116;18.296;2023-02-28T00:06:32;55.70;;;15.87;;
51810;SDS011;52468;40.116;18.296;2023-02-28T00:09:00;59.83;;;18.73;;
51810;SDS011;52468;40.116;18.296;2023-02-28T00:11:29;52.33;;;15.47;;
51810;SDS011;52468;40.116;18.296;2023-02-28T00:13:57;49.67;;;16.07;;
51810;SDS011;52468;40.116;18.296;2023-02-28T00:16:25;61.83;;;17.47;;
51810;SDS011;52468;40.116;18.296;2023-02-28T00:18:53;58.03;;;15.00;;
51810;SDS011;52468;40.116;18.296;2023-02-28T00:21:21;53.57;;;14.77;;
51810;SDS011;52468;40.116;18.296;2023-02-28T00:23:49;64.20;;;19.00;;
51810;SDS011;52468;40.116;18.296;2023-02-28T00:26:17;51.73;;;16.93;;
51810;SDS011;52468;40.116;18.296;2023-02-28T00:28:47;56.77;;;14.60;;
51810;SDS011;52468;40.116;18.296;2023-02-28T00:31:15;45.33;;;13.77;;
51810;SDS011;52468;40.116;18.296;2023-02-28T00:33:43;60.73;;;16.67;;
51810;SDS011;52468;40.116;18.296;2023-02-28T00:36:11;58.30;;;14.63;;
51810;SDS011;52468;40.116;18.296;2023-02-28T00:38:39;61.77;;;14.50;;
51810;SDS011;52468;40.116;18.296;2023-02-28T00:41:08;64.57;;;17.90;;
51810;SDS011;52468;40.116;18.296;2023-02-28T00:43:37;52.27;;;14.63;;
51810;SDS011;52468;40.116;18.296;2023-02-28T00:46:06;56.40;;;16.20;;
51810;SDS011;52468;40.116;18.296;2023-02-28T00:48:34;69.33;;;19.07;;
51810;SDS011;52468;40.116;18.296;2023-02-28T00:51:02;53.63;;;14.00;;
51810;SDS011;52468;40.116;18.296;2023-02-28T00:53:31;52.27;;;15.10;;
51810;SDS011;52468;40.116;18.296;2023-02-28T00:56:00;57.93;;;14.87;;
51810;SDS011;52468;40.116;18.296;2023-02-28T00:58:28;59.50;;;17.17;;
51810;SDS011;52468;40.116;18.296;2023-02-28T01:00:56;67.10;;;19.93;;
51810;SDS011;52468;40.116;18.296;2023-02-28T01:03:24;54.63;;;16.70;;
51810;SDS011;52468;40.116;18.296;2023-02-28T01:05:52;57.37;;;15.07;;
51810;SDS011;52468;40.116;18.296;2023-02-28T01:08:20;69.70;;;18.67;;
51810;SDS011;52468;40.116;18.296;2023-02-28T01:10:50;52.63;;;15.60;;
51810;SDS011;52468;40.116;18.296;2023-02-28T01:13:18;90.43;;;19.60;;
51810;SDS011;52468;40.116;18.296;2023-02-28T01:15:50;61.93;;;14.40;;
51810;SDS011;52468;40.116;18.296;2023-02-28T01:20:48;58.13;;;15.73;;
51810;SDS011;52468;40.116;18.296;2023-02-28T01:23:16;53.40;;;14.33;;
51810;SDS011;52468;40.116;18.296;2023-02-28T01:25:44;62.93;;;15.77;;
51810;SDS011;52468;40.116;18.296;2023-02-28T01:28:12;75.97;;;17.53;;
51810;SDS011;52468;40.116;18.296;2023-02-28T01:30:40;54.47;;;16.17;;
51810;SDS011;52468;40.116;18.296;2023-02-28T01:33:08;62.73;;;17.33;;
51810;SDS011;52468;40.116;18.296;2023-02-28T01:35:36;63.37;;;17.93;;
51810;SDS011;52468;40.116;18.296;2023-02-28T01:38:04;57.30;;;16.33;;
51810;SDS011;52468;40.116;18.296;2023-02-28T01:40:47;67.22;;;16.35;;
51810;SDS011;52468;40.116;18.296;2023-02-28T01:43:19;74.23;;;18.67;;
51810;SDS011;52468;40.116;18.296;2023-02-28T01:45:55;64.67;;;16.20;;
51810;SDS011;52468;40.116;18.296;2023-02-28T01:48:26;53.87;;;16.60;;
51810;SDS011;52468;40.116;18.296;2023-02-28T01:50:59;73.90;;;14.73;;
51810;SDS011;52468;40.116;18.296;2023-02-28T01:53:33;71.40;;;17.23;;
51810;SDS011;52468;40.116;18.296;2023-02-28T01:56:06;54.37;;;15.73;;
51810;SDS011;52468;40.116;18.296;2023-02-28T01:58:37;56.27;;;13.87;;
51810;SDS011;52468;40.116;18.296;2023-02-28T02:01:05;49.77;;;15.20;;
51810;SDS011;52468;40.116;18.296;2023-02-28T02:03:33;61.27;;;17.53;;
51810;SDS011;52468;40.116;18.296;2023-02-28T02:06:03;64.00;;;15.27;;
51810;SDS011;52468;40.116;18.296;2023-02-28T02:08:31;59.03;;;15.53;;
51810;SDS011;52468;40.116;18.296;2023-02-28T02:11:00;60.83;;;16.40;;
51810;SDS011;52468;40.116;18.296;2023-02-28T02:28:11;68.27;;;16.43;;
51810;SDS011;52468;40.116;18.296;2023-02-28T02:36:52;71.70;;;17.83;;
51810;SDS011;52468;40.116;18.296;2023-02-28T02:42:20;50.97;;;12.80;;
51810;SDS011;52468;40.116;18.296;2023-02-28T02:45:11;61.65;;;16.52;;
51810;SDS011;52468;40.116;18.296;2023-02-28T02:47:46;63.40;;;15.57;;
51810;SDS011;52468;40.116;18.296;2023-02-28T02:50:19;68.93;;;17.30;;
51810;SDS011;52468;40.116;18.296;2023-02-28T02:52:53;54.13;;;14.87;;
51810;SDS011;52468;40.116;18.296;2023-02-28T02:55:25;54.97;;;15.07;;
51810;SDS011;52468;40.116;18.296;2023-02-28T02:57:54;76.23;;;16.20;;
51810;SDS011;52468;40.116;18.296;2023-02-28T03:00:27;76.73;;;20.53;;
51810;SDS011;52468;40.116;18.296;2023-02-28T03:03:00;64.27;;;16.00;;
51810;SDS011;52468;40.116;18.296;2023-02-28T03:05:31;66.23;;;16.50;;
51810;SDS011;52468;40.116;18.296;2023-02-28T03:08:10;62.87;;;18.20;;
51810;SDS011;52468;40.116;18.296;2023-02-28T03:10:39;57.67;;;16.40;;
51810;SDS011;52468;40.116;18.296;2023-02-28T03:21:32;74.60;;;21.65;;
51810;SDS011;52468;40.116;18.296;2023-02-28T03:26:45;60.40;;;14.77;;
51810;SDS011;52468;40.116;18.296;2023-02-28T03:32:38;73.77;;;19.03;;
51810;SDS011;52468;40.116;18.296;2023-02-28T03:35:05;64.10;;;19.57;;
51810;SDS011;52468;40.116;18.296;2023-02-28T03:37:41;73.53;;;19.17;;
51810;SDS011;52468;40.116;18.296;2023-02-28T03:40:15;66.13;;;19.17;;
51810;SDS011;52468;40.116;18.296;2023-02-28T03:42:48;70.17;;;18.30;;
51810;SDS011;52468;40.116;18.296;2023-02-28T03:45:25;94.77;;;19.30;;
51810;SDS011;52468;40.116;18.296;2023-02-28T03:48:40;64.03;;;19.23;;
51810;SDS011;52468;40.116;18.296;2023-02-28T03:50:50;79.25;;;19.45;;
51810;SDS011;52468;40.116;18.296;2023-02-28T03:53:25;71.50;;;17.58;;
51810;SDS011;52468;40.116;18.296;2023-02-28T03:58:57;77.80;;;18.80;;
51810;SDS011;52468;40.116;18.296;2023-02-28T04:01:46;66.07;;;20.13;;
51810;SDS011;52468;40.116;18.296;2023-02-28T04:04:16;72.73;;;18.90;;
51810;SDS011;52468;40.116;18.296;2023-02-28T04:06:44;72.77;;;18.80;;
51810;SDS011;52468;40.116;18.296;2023-02-28T04:09:13;80.03;;;19.57;;
51810;SDS011;52468;40.116;18.296;2023-02-28T04:11:42;73.60;;;18.30;;
51810;SDS011;52468;40.116;18.296;2023-02-28T04:14:22;67.63;;;19.87;;
51810;SDS011;52468;40.116;18.296;2023-02-28T04:16:50;75.20;;;18.50;;
51810;SDS011;52468;40.116;18.296;2023-02-28T04:19:19;74.97;;;18.27;;
51810;SDS011;52468;40.116;18.296;2023-02-28T04:21:48;72.13;;;19.70;;
51810;SDS011;52468;40.116;18.296;2023-02-28T04:24:21;78.07;;;17.92;;
51810;SDS011;52468;40.116;18.296;2023-02-28T04:26:51;61.53;;;15.07;;
51810;SDS011;52468;40.116;18.296;2023-02-28T04:29:27;73.13;;;18.77;;
51810;SDS011;52468;40.116;18.296;2023-02-28T04:31:59;62.90;;;14.67;;
51810;SDS011;52468;40.116;18.296;2023-02-28T04:34:28;79.00;;;19.87;;
51810;SDS011;52468;40.116;18.296;2023-02-28T04:36:57;68.83;;;21.10;;
51810;SDS011;52468;40.116;18.296;2023-02-28T04:39:43;76.37;;;17.47;;
51810;SDS011;52468;40.116;18.296;2023-02-28T04:42:11;61.83;;;17.33;;
51810;SDS011;52468;40.116;18.296;2023-02-28T04:44:40;64.10;;;15.67;;
51810;SDS011;52468;40.116;18.296;2023-02-28T04:47:08;74.73;;;16.17;;
51810;SDS011;52468;40.116;18.296;2023-02-28T04:49:36;66.40;;;17.50;;
51810;SDS011;52468;40.116;18.296;2023-02-28T04:52:04;68.47;;;19.83;;
51810;SDS011;52468;40.116;18.296;2023-02-28T04:54:32;63.93;;;16.60;;
51810;SDS011;52468;40.116;18.296;2023-02-28T04:57:00;60.60;;;15.47;;
51810;SDS011;52468;40.116;18.296;2023-02-28T04:59:28;57.10;;;17.23;;
51810;SDS011;52468;40.116;18.296;2023-02-28T05:01:56;73.10;;;17.87;;
51810;SDS011;52468;40.116;18.296;2023-02-28T05:04:24;68.80;;;18.67;;
51810;SDS011;52468;40.116;18.296;2023-02-28T05:06:52;66.13;;;17.73;;
51810;SDS011;52468;40.116;18.296;2023-02-28T05:09:19;71.07;;;15.23;;
51810;SDS011;52468;40.116;18.296;2023-02-28T05:11:47;73.80;;;19.47;;
51810;SDS011;52468;40.116;18.296;2023-02-28T05:14:15;64.93;;;18.43;;
51810;SDS011;52468;40.116;18.296;2023-02-28T05:16:43;71.50;;;19.20;;
51810;SDS011;52468;40.116;18.296;2023-02-28T05:19:11;61.17;;;16.23;;
51810;SDS011;52468;40.116;18.296;2023-02-28T05:21:48;66.00;;;17.70;;
51810;SDS011;52468;40.116;18.296;2023-02-28T05:24:18;55.60;;;15.23;;
51810;SDS011;52468;40.116;18.296;2023-02-28T05:26:50;96.77;;;20.67;;
51810;SDS011;52468;40.116;18.296;2023-02-28T05:29:20;74.23;;;17.33;;
51810;SDS011;52468;40.116;18.296;2023-02-28T05:31:48;67.53;;;19.80;;
51810;SDS011;52468;40.116;18.296;2023-02-28T05:34:16;63.87;;;16.00;;
51810;SDS011;52468;40.116;18.296;2023-02-28T05:36:44;75.73;;;19.10;;
51810;SDS011;52468;40.116;18.296;2023-02-28T05:39:12;73.90;;;18.87;;
51810;SDS011;52468;40.116;18.296;2023-02-28T05:41:41;74.93;;;18.57;;
51810;SDS011;52468;40.116;18.296;2023-02-28T05:44:09;69.47;;;17.40;;
51810;SDS011;52468;40.116;18.296;2023-02-28T05:46:37;72.47;;;16.50;;
51810;SDS011;52468;40.116;18.296;2023-02-28T05:49:05;59.77;;;18.90;;
51810;SDS011;52468;40.116;18.296;2023-02-28T05:51:33;56.70;;;14.83;;
51810;SDS011;52468;40.116;18.296;2023-02-28T05:54:03;70.63;;;15.57;;
51810;SDS011;52468;40.116;18.296;2023-02-28T05:56:31;67.83;;;15.33;;
51810;SDS011;52468;40.116;18.296;2023-02-28T05:59:01;65.47;;;17.30;;
51810;SDS011;52468;40.116;18.296;2023-02-28T06:01:33;60.47;;;16.87;;
51810;SDS011;52468;40.116;18.296;2023-02-28T06:04:06;62.30;;;21.70;;
51810;SDS011;52468;40.116;18.296;2023-02-28T06:06:45;58.87;;;15.87;;
51810;SDS011;52468;40.116;18.296;2023-02-28T06:09:14;44.30;;;14.20;;
51810;SDS011;52468;40.116;18.296;2023-02-28T06:11:43;52.10;;;16.40;;
51810;SDS011;52468;40.116;18.296;2023-02-28T06:14:15;71.27;;;17.97;;
51810;SDS011;52468;40.116;18.296;2023-02-28T06:16:46;64.70;;;17.17;;
51810;SDS011;52468;40.116;18.296;2023-02-28T06:19:14;73.77;;;18.30;;
51810;SDS011;52468;40.116;18.296;2023-02-28T06:21:42;66.37;;;20.93;;
51810;SDS011;52468;40.116;18.296;2023-02-28T06:24:10;63.53;;;21.20;;
51810;SDS011;52468;40.116;18.296;2023-02-28T06:26:38;67.17;;;17.57;;
51810;SDS011;52468;40.116;18.296;2023-02-28T06:29:06;57.93;;;16.53;;
51810;SDS011;52468;40.116;18.296;2023-02-28T06:31:34;57.77;;;17.77;;
51810;SDS011;52468;40.116;18.296;2023-02-28T06:34:02;59.40;;;18.20;;
51810;SDS011;52468;40.116;18.296;2023-02-28T06:36:30;61.17;;;18.23;;
51810;SDS011;52468;40.116;18.296;2023-02-28T06:38:58;51.07;;;15.57;;
51810;SDS011;52468;40.116;18.296;2023-02-28T06:41:26;64.90;;;18.37;;
51810;SDS011;52468;40.116;18.296;2023-02-28T06:43:55;62.90;;;19.90;;
51810;SDS011;52468;40.116;18.296;2023-02-28T06:46:23;61.27;;;16.20;;
51810;SDS011;52468;40.116;18.296;2023-02-28T06:48:51;71.03;;;16.20;;
51810;SDS011;52468;40.116;18.296;2023-02-28T06:51:19;60.47;;;15.33;;
51810;SDS011;52468;40.116;18.296;2023-02-28T06:53:49;64.87;;;17.73;;
51810;SDS011;52468;40.116;18.296;2023-02-28T06:56:18;64.27;;;16.70;;
51810;SDS011;52468;40.116;18.296;2023-02-28T06:58:50;64.30;;;18.63;;
51810;SDS011;52468;40.116;18.296;2023-02-28T07:01:19;51.10;;;14.67;;
51810;SDS011;52468;40.116;18.296;2023-02-28T07:03:47;62.43;;;19.07;;
51810;SDS011;52468;40.116;18.296;2023-02-28T07:06:19;70.77;;;16.87;;
51810;SDS011;52468;40.116;18.296;2023-02-28T07:08:51;53.00;;;14.10;;
51810;SDS011;52468;40.116;18.296;2023-02-28T07:11:20;61.90;;;15.17;;
51810;SDS011;52468;40.116;18.296;2023-02-28T07:13:49;67.70;;;16.37;;
51810;SDS011;52468;40.116;18.296;2023-02-28T07:16:18;60.40;;;17.13;;
51810;SDS011;52468;40.116;18.296;2023-02-28T07:18:46;68.57;;;14.27;;
51810;SDS011;52468;40.116;18.296;2023-02-28T07:21:13;55.50;;;16.80;;
51810;SDS011;52468;40.116;18.296;2023-02-28T07:23:42;64.33;;;15.97;;
51810;SDS011;52468;40.116;18.296;2023-02-28T07:26:11;74.40;;;17.83;;
51810;SDS011;52468;40.116;18.296;2023-02-28T07:28:42;59.60;;;17.53;;
51810;SDS011;52468;40.116;18.296;2023-02-28T07:31:10;60.40;;;15.90;;
51810;SDS011;52468;40.116;18.296;2023-02-28T07:33:39;53.70;;;16.47;;
51810;SDS011;52468;40.116;18.296;2023-02-28T07:36:11;49.00;;;13.23;;
51810;SDS011;52468;40.116;18.296;2023-02-28T07:38:43;52.73;;;13.30;;
51810;SDS011;52468;40.116;18.296;2023-02-28T07:41:18;46.17;;;12.27;;
51810;SDS011;52468;40.116;18.296;2023-02-28T07:43:47;50.53;;;12.48;;
51810;SDS011;52468;40.116;18.296;2023-02-28T07:46:16;52.63;;;10.73;;
51810;SDS011;52468;40.116;18.296;2023-02-28T07:48:44;38.83;;;10.27;;
51810;SDS011;52468;40.116;18.296;2023-02-28T07:51:12;31.30;;;10.40;;
51810;SDS011;52468;40.116;18.296;2023-02-28T07:53:40;40.83;;;9.20;;
51810;SDS011;52468;40.116;18.296;2023-02-28T07:56:08;35.67;;;8.70;;
51810;SDS011;52468;40.116;18.296;2023-02-28T07:58:35;34.07;;;8.70;;
51810;SDS011;52468;40.116;18.296;2023-02-28T08:01:07;35.67;;;9.53;;
51810;SDS011;52468;40.116;18.296;2023-02-28T08:03:36;38.97;;;8.73;;
51810;SDS011;52468;40.116;18.296;2023-02-28T08:06:06;40.70;;;7.73;;
51810;SDS011;52468;40.116;18.296;2023-02-28T08:08:35;26.13;;;7.60;;
51810;SDS011;52468;40.116;18.296;2023-02-28T08:11:03;34.90;;;7.90;;
51810;SDS011;52468;40.116;18.296;2023-02-28T08:13:31;36.27;;;7.93;;
51810;SDS011;52468;40.116;18.296;2023-02-28T08:16:01;36.80;;;8.60;;
51810;SDS011;52468;40.116;18.296;2023-02-28T08:18:30;30.90;;;9.30;;
51810;SDS011;52468;40.116;18.296;2023-02-28T08:20:59;28.73;;;6.90;;
51810;SDS011;52468;40.116;18.296;2023-02-28T08:23:32;31.55;;;6.15;;
51810;SDS011;52468;40.116;18.296;2023-02-28T08:26:00;30.43;;;8.00;;
51810;SDS011;52468;40.116;18.296;2023-02-28T08:28:28;23.97;;;8.60;;
51810;SDS011;52468;40.116;18.296;2023-02-28T08:30:57;38.30;;;9.13;;
51810;SDS011;52468;40.116;18.296;2023-02-28T08:33:26;37.10;;;8.33;;
51810;SDS011;52468;40.116;18.296;2023-02-28T08:35:55;46.60;;;10.30;;
51810;SDS011;52468;40.116;18.296;2023-02-28T08:38:23;42.17;;;8.47;;
51810;SDS011;52468;40.116;18.296;2023-02-28T08:40:56;30.93;;;7.90;;
51810;SDS011;52468;40.116;18.296;2023-02-28T08:43:25;35.53;;;8.60;;
51810;SDS011;52468;40.116;18.296;2023-02-28T08:45:54;28.47;;;7.53;;
51810;SDS011;52468;40.116;18.296;2023-02-28T08:48:24;29.30;;;7.47;;
51810;SDS011;52468;40.116;18.296;2023-02-28T08:51:00;35.93;;;7.87;;
51810;SDS011;52468;40.116;18.296;2023-02-28T08:53:33;31.47;;;6.50;;
51810;SDS011;52468;40.116;18.296;2023-02-28T08:56:06;22.67;;;6.07;;
51810;SDS011;52468;40.116;18.296;2023-02-28T08:58:36;32.17;;;7.43;;
51810;SDS011;52468;40.116;18.296;2023-02-28T09:01:08;31.73;;;7.20;;
51810;SDS011;52468;40.116;18.296;2023-02-28T09:03:38;34.37;;;8.93;;
51810;SDS011;52468;40.116;18.296;2023-02-28T09:06:06;40.30;;;6.87;;
51810;SDS011;52468;40.116;18.296;2023-02-28T09:08:34;28.40;;;7.53;;
51810;SDS011;52468;40.116;18.296;2023-02-28T09:11:03;39.20;;;10.03;;
51810;SDS011;52468;40.116;18.296;2023-02-28T09:13:31;38.90;;;7.13;;
51810;SDS011;52468;40.116;18.296;2023-02-28T09:16:03;37.50;;;8.03;;
51810;SDS011;52468;40.116;18.296;2023-02-28T09:18:33;32.77;;;6.47;;
51810;SDS011;52468;40.116;18.296;2023-02-28T09:21:05;29.83;;;7.97;;
51810;SDS011;52468;40.116;18.296;2023-02-28T09:23:34;35.77;;;6.63;;
51810;SDS011;52468;40.116;18.296;2023-02-28T09:26:05;33.83;;;7.37;;
51810;SDS011;52468;40.116;18.296;2023-02-28T09:28:33;30.53;;;6.73;;
51810;SDS011;52468;40.116;18.296;2023-02-28T09:31:01;35.30;;;7.47;;
51810;SDS011;52468;40.116;18.296;2023-02-28T09:33:31;26.63;;;6.53;;
51810;SDS011;52468;40.116;18.296;2023-02-28T09:36:02;38.87;;;7.83;;
51810;SDS011;52468;40.116;18.296;2023-02-28T09:38:31;35.50;;;6.30;;
51810;SDS011;52468;40.116;18.296;2023-02-28T09:41:03;28.37;;;7.07;;
51810;SDS011;52468;40.116;18.296;2023-02-28T09:43:39;27.67;;;6.40;;
51810;SDS011;52468;40.116;18.296;2023-02-28T09:48:56;34.17;;;9.40;;
51810;SDS011;52468;40.116;18.296;2023-02-28T09:51:37;35.00;;;8.07;;
51810;SDS011;52468;40.116;18.296;2023-02-28T09:54:16;35.30;;;7.03;;
51810;SDS011;52468;40.116;18.296;2023-02-28T09:57:00;27.00;;;6.60;;
51810;SDS011;52468;40.116;18.296;2023-02-28T10:05:28;26.58;;;5.75;;
51810;SDS011;52468;40.116;18.296;2023-02-28T10:08:01;34.37;;;5.47;;
51810;SDS011;52468;40.116;18.296;2023-02-28T10:11:15;21.87;;;5.47;;
51810;SDS011;52468;40.116;18.296;2023-02-28T10:13:35;22.98;;;6.10;;
51810;SDS011;52468;40.116;18.296;2023-02-28T10:16:10;39.85;;;7.50;;
51810;SDS011;52468;40.116;18.296;2023-02-28T10:21:24;27.90;;;5.17;;
51810;SDS011;52468;40.116;18.296;2023-02-28T10:24:29;23.97;;;4.97;;
51810;SDS011;52468;40.116;18.296;2023-02-28T10:27:01;20.43;;;5.47;;
51810;SDS011;52468;40.116;18.296;2023-02-28T10:29:45;32.47;;;5.22;;
51810;SDS011;52468;40.116;18.296;2023-02-28T10:32:18;28.37;;;6.67;;
51810;SDS011;52468;40.116;18.296;2023-02-28T10:34:52;22.97;;;4.97;;
51810;SDS011;52468;40.116;18.296;2023-02-28T10:37:26;26.70;;;4.63;;
51810;SDS011;52468;40.116;18.296;2023-02-28T10:39:55;18.60;;;4.33;;
51810;SDS011;52468;40.116;18.296;2023-02-28T10:42:26;28.13;;;5.17;;
51810;SDS011;52468;40.116;18.296;2023-02-28T10:45:05;21.42;;;6.30;;
51810;SDS011;52468;40.116;18.296;2023-02-28T10:47:34;29.40;;;5.97;;
51810;SDS011;52468;40.116;18.296;2023-02-28T10:50:03;19.63;;;4.90;;
51810;SDS011;52468;40.116;18.296;2023-02-28T10:52:32;21.87;;;5.33;;
51810;SDS011;52468;40.116;18.296;2023-02-28T10:55:20;28.40;;;4.97;;
51810;SDS011;52468;40.116;18.296;2023-02-28T10:57:49;26.53;;;5.97;;
51810;SDS011;52468;40.116;18.296;2023-02-28T11:00:19;29.47;;;6.50;;
51810;SDS011;52468;40.116;18.296;2023-02-28T11:02:52;32.77;;;6.37;;
51810;SDS011;52468;40.116;18.296;2023-02-28T11:05:30;29.47;;;5.87;;
51810;SDS011;52468;40.116;18.296;2023-02-28T11:08:04;19.47;;;6.33;;
51810;SDS011;52468;40.116;18.296;2023-02-28T11:10:44;38.30;;;7.50;;
51810;SDS011;52468;40.116;18.296;2023-02-28T11:13:17;28.77;;;5.93;;
51810;SDS011;52468;40.116;18.296;2023-02-28T11:15:53;27.43;;;6.63;;
51810;SDS011;52468;40.116;18.296;2023-02-28T11:21:01;24.27;;;5.40;;
51810;SDS011;52468;40.116;18.296;2023-02-28T11:23:30;16.63;;;5.30;;
51810;SDS011;52468;40.116;18.296;2023-02-28T11:26:03;32.83;;;6.07;;
51810;SDS011;52468;40.116;18.296;2023-02-28T11:28:32;35.73;;;7.03;;
51810;SDS011;52468;40.116;18.296;2023-02-28T11:31:20;30.27;;;6.70;;
51810;SDS011;52468;40.116;18.296;2023-02-28T11:33:52;29.17;;;6.23;;
51810;SDS011;52468;40.116;18.296;2023-02-28T11:38:59;36.40;;;7.63;;
51810;SDS011;52468;40.116;18.296;2023-02-28T11:42:08;28.27;;;6.60;;
51810;SDS011;52468;40.116;18.296;2023-02-28T11:44:35;28.00;;;5.43;;
51810;SDS011;52468;40.116;18.296;2023-02-28T11:47:28;32.47;;;7.00;;
51810;SDS011;52468;40.116;18.296;2023-02-28T11:55:44;31.60;;;7.67;;
51810;SDS011;52468;40.116;18.296;2023-02-28T12:12:48;22.10;;;5.97;;
51810;SDS011;52468;40.116;18.296;2023-02-28T12:26:38;27.77;;;5.93;;
51810;SDS011;52468;40.116;18.296;2023-02-28T12:31:41;31.97;;;7.27;;
51810;SDS011;52468;40.116;18.296;2023-02-28T12:34:46;31.75;;;6.20;;
51810;SDS011;52468;40.116;18.296;2023-02-28T12:37:21;32.53;;;6.67;;
51810;SDS011;52468;40.116;18.296;2023-02-28T12:40:01;21.03;;;5.80;;
51810;SDS011;52468;40.116;18.296;2023-02-28T12:42:36;17.70;;;5.07;;
51810;SDS011;52468;40.116;18.296;2023-02-28T12:45:21;18.10;;;4.77;;
51810;SDS011;52468;40.116;18.296;2023-02-28T12:48:03;34.57;;;6.53;;
51810;SDS011;52468;40.116;18.296;2023-02-28T12:50:33;47.77;;;9.53;;
51810;SDS011;52468;40.116;18.296;2023-02-28T12:53:04;35.93;;;6.47;;
51810;SDS011;52468;40.116;18.296;2023-02-28T13:09:32;26.47;;;5.97;;
51810;SDS011;52468;40.116;18.296;2023-02-28T13:12:00;28.93;;;6.87;;
51810;SDS011;52468;40.116;18.296;2023-02-28T13:17:09;32.00;;;6.77;;
51810;SDS011;52468;40.116;18.296;2023-02-28T13:19:55;27.93;;;6.13;;
51810;SDS011;52468;40.116;18.296;2023-02-28T13:25:00;32.57;;;6.13;;
51810;SDS011;52468;40.116;18.296;2023-02-28T13:27:36;27.07;;;7.67;;
51810;SDS011;52468;40.116;18.296;2023-02-28T13:35:47;19.97;;;5.30;;
51810;SDS011;52468;40.116;18.296;2023-02-28T13:38:16;32.20;;;7.37;;
51810;SDS011;52468;40.116;18.296;2023-02-28T13:51:50;25.63;;;7.27;;
51810;SDS011;52468;40.116;18.296;2023-02-28T14:05:20;15.18;;;4.50;;
51810;SDS011;52468;40.116;18.296;2023-02-28T14:07:53;26.93;;;6.07;;
51810;SDS011;52468;40.116;18.296;2023-02-28T14:10:43;39.43;;;6.70;;
51810;SDS011;52468;40.116;18.296;2023-02-28T14:16:06;25.20;;;6.13;;
51810;SDS011;52468;40.116;18.296;2023-02-28T14:18:36;35.40;;;8.47;;
51810;SDS011;52468;40.116;18.296;2023-02-28T14:21:11;30.47;;;6.27;;
51810;SDS011;52468;40.116;18.296;2023-02-28T14:24:01;28.60;;;9.73;;
51810;SDS011;52468;40.116;18.296;2023-02-28T14:37:31;21.07;;;4.93;;
51810;SDS011;52468;40.116;18.296;2023-02-28T14:40:04;20.83;;;7.00;;
51810;SDS011;52468;40.116;18.296;2023-02-28T14:42:45;21.67;;;4.73;;
51810;SDS011;52468;40.116;18.296;2023-02-28T14:45:31;18.73;;;6.00;;
51810;SDS011;52468;40.116;18.296;2023-02-28T14:48:02;23.13;;;6.97;;
51810;SDS011;52468;40.116;18.296;2023-02-28T14:50:36;20.53;;;5.93;;
51810;SDS011;52468;40.116;18.296;2023-02-28T14:53:04;24.70;;;5.63;;
51810;SDS011;52468;40.116;18.296;2023-02-28T14:55:46;22.43;;;4.17;;
51810;SDS011;52468;40.116;18.296;2023-02-28T15:01:19;31.10;;;6.78;;
51810;SDS011;52468;40.116;18.296;2023-02-28T15:03:56;18.37;;;5.50;;
51810;SDS011;52468;40.116;18.296;2023-02-28T15:06:32;35.30;;;6.63;;
51810;SDS011;52468;40.116;18.296;2023-02-28T15:09:09;30.67;;;5.80;;
51810;SDS011;52468;40.116;18.296;2023-02-28T15:11:45;27.27;;;6.20;;
51810;SDS011;52468;40.116;18.296;2023-02-28T15:14:19;12.65;;;5.38;;
51810;SDS011;52468;40.116;18.296;2023-02-28T15:16:50;19.33;;;4.30;;
51810;SDS011;52468;40.116;18.296;2023-02-28T15:19:25;24.20;;;5.97;;
51810;SDS011;52468;40.116;18.296;2023-02-28T15:21:58;21.90;;;5.87;;
51810;SDS011;52468;40.116;18.296;2023-02-28T15:24:31;32.20;;;7.67;;
51810;SDS011;52468;40.116;18.296;2023-02-28T15:27:29;20.57;;;5.67;;
51810;SDS011;52468;40.116;18.296;2023-02-28T15:30:06;28.77;;;7.93;;
51810;SDS011;52468;40.116;18.296;2023-02-28T15:32:37;25.30;;;5.63;;
51810;SDS011;52468;40.116;18.296;2023-02-28T15:37:57;22.70;;;6.30;;
51810;SDS011;52468;40.116;18.296;2023-02-28T15:43:17;23.70;;;8.07;;
51810;SDS011;52468;40.116;18.296;2023-02-28T15:46:00;25.67;;;6.73;;
51810;SDS011;52468;40.116;18.296;2023-02-28T15:51:19;23.07;;;6.17;;
51810;SDS011;52468;40.116;18.296;2023-02-28T15:53:51;23.90;;;6.37;;
51810;SDS011;52468;40.116;18.296;2023-02-28T15:56:25;22.00;;;6.78;;
51810;SDS011;52468;40.116;18.296;2023-02-28T15:59:02;23.17;;;6.83;;
51810;SDS011;52468;40.116;18.296;2023-02-28T16:01:33;23.33;;;6.10;;
51810;SDS011;52468;40.116;18.296;2023-02-28T16:04:04;27.93;;;5.80;;
51810;SDS011;52468;40.116;18.296;2023-02-28T16:09:12;21.77;;;6.87;;
51810;SDS011;52468;40.116;18.296;2023-02-28T16:11:43;40.10;;;17.43;;
51810;SDS011;52468;40.116;18.296;2023-02-28T16:14:17;25.03;;;8.47;;
51810;SDS011;52468;40.116;18.296;2023-02-28T16:16:48;24.70;;;6.37;;
51810;SDS011;52468;40.116;18.296;2023-02-28T16:19:19;30.87;;;10.23;;
51810;SDS011;52468;40.116;18.296;2023-02-28T16:21:47;19.07;;;7.57;;
51810;SDS011;52468;40.116;18.296;2023-02-28T16:24:15;27.70;;;10.97;;
51810;SDS011;52468;40.116;18.296;2023-02-28T16:26:45;29.40;;;10.53;;
51810;SDS011;52468;40.116;18.296;2023-02-28T16:29:18;33.10;;;11.00;;
51810;SDS011;52468;40.116;18.296;2023-02-28T16:32:07;22.20;;;7.30;;
51810;SDS011;52468;40.116;18.296;2023-02-28T16:34:35;28.37;;;8.43;;
51810;SDS011;52468;40.116;18.296;2023-02-28T16:37:04;28.33;;;8.27;;
51810;SDS011;52468;40.116;18.296;2023-02-28T16:39:36;30.47;;;10.03;;
51810;SDS011;52468;40.116;18.296;2023-02-28T16:42:04;33.53;;;8.30;;
51810;SDS011;52468;40.116;18.296;2023-02-28T16:44:35;28.10;;;8.77;;
51810;SDS011;52468;40.116;18.296;2023-02-28T16:47:03;30.97;;;8.87;;
51810;SDS011;52468;40.116;18.296;2023-02-28T16:49:31;33.83;;;9.90;;
51810;SDS011;52468;40.116;18.296;2023-02-28T16:51:59;23.43;;;11.60;;
51810;SDS011;52468;40.116;18.296;2023-02-28T16:54:27;36.73;;;11.27;;
51810;SDS011;52468;40.116;18.296;2023-02-28T16:56:55;28.30;;;11.03;;
51810;SDS011;52468;40.116;18.296;2023-02-28T16:59:23;28.73;;;9.13;;
51810;SDS011;52468;40.116;18.296;2023-02-28T17:01:54;30.07;;;10.03;;
51810;SDS011;52468;40.116;18.296;2023-02-28T17:04:25;23.03;;;8.23;;
51810;SDS011;52468;40.116;18.296;2023-02-28T17:06:54;22.00;;;7.87;;
51810;SDS011;52468;40.116;18.296;2023-02-28T17:09:22;28.63;;;11.10;;
51810;SDS011;52468;40.116;18.296;2023-02-28T17:12:02;22.83;;;6.80;;
51810;SDS011;52468;40.116;18.296;2023-02-28T17:14:30;24.30;;;6.60;;
51810;SDS011;52468;40.116;18.296;2023-02-28T17:16:58;24.67;;;8.60;;
51810;SDS011;52468;40.116;18.296;2023-02-28T17:19:26;20.50;;;6.97;;
51810;SDS011;52468;40.116;18.296;2023-02-28T17:21:55;30.07;;;10.57;;
51810;SDS011;52468;40.116;18.296;2023-02-28T17:24:23;28.03;;;9.60;;
51810;SDS011;52468;40.116;18.296;2023-02-28T17:26:57;24.07;;;9.00;;
51810;SDS011;52468;40.116;18.296;2023-02-28T17:29:25;28.93;;;7.33;;
51810;SDS011;52468;40.116;18.296;2023-02-28T17:31:52;34.43;;;9.77;;